sensor_id;sensor_type;location;lat;lon;timestamp;P1;durP1;ratioP1;P2;durP2;ratioP2
63438;SDS011;49567;48.958;8.294;2023-05-13T00:00:03;2.33;;;2.10;;
63438;SDS011;49567;48.958;8.294;2023-05-13T00:02:28;2.67;;;2.10;;
63438;SDS011;49567;48.958;8.294;2023-05-13T00:04:54;3.03;;;2.22;;
63438;SDS011;49567;48.958;8.294;2023-05-13T00:07:19;2.43;;;2.33;;
63438;SDS011;49567;48.958;8.294;2023-05-13T00:09:44;2.50;;;2.40;;
63438;SDS011;49567;48.958;8.294;2023-05-13T00:12:10;2.50;;;2.30;;
63438;SDS011;49567;48.958;8.294;2023-05-13T00:14:35;2.93;;;2.00;;
63438;SDS011;49567;48.958;8.294;2023-05-13T00:17:01;2.08;;;1.98;;
63438;SDS011;49567;48.958;8.294;2023-05-13T00:19:28;1.98;;;1.83;;
63438;SDS011;49567;48.958;8.294;2023-05-13T00:21:54;1.80;;;1.70;;
63438;SDS011;49567;48.958;8.294;2023-05-13T00:24:19;1.67;;;1.57;;
63438;SDS011;49567;48.958;8.294;2023-05-13T00:26:45;1.63;;;1.58;;
63438;SDS011;49567;48.958;8.294;2023-05-13T00:29:10;1.70;;;1.60;;
63438;SDS011;49567;48.958;8.294;2023-05-13T00:31:35;3.73;;;1.53;;
63438;SDS011;49567;48.958;8.294;2023-05-13T00:34:01;2.40;;;1.80;;
63438;SDS011;49567;48.958;8.294;2023-05-13T00:36:28;1.58;;;1.48;;
63438;SDS011;49567;48.958;8.294;2023-05-13T00:38:53;1.65;;;1.60;;
63438;SDS011;49567;48.958;8.294;2023-05-13T00:41:19;2.43;;;1.60;;
63438;SDS011;49567;48.958;8.294;2023-05-13T00:43:45;2.05;;;1.65;;
63438;SDS011;49567;48.958;8.294;2023-05-13T00:46:11;2.57;;;1.70;;
63438;SDS011;49567;48.958;8.294;2023-05-13T00:48:37;6.22;;;1.90;;
63438;SDS011;49567;48.958;8.294;2023-05-13T00:51:02;1.50;;;1.50;;
63438;SDS011;49567;48.958;8.294;2023-05-13T00:53:29;1.60;;;1.43;;
63438;SDS011;49567;48.958;8.294;2023-05-13T00:55:56;2.28;;;1.40;;
63438;SDS011;49567;48.958;8.294;2023-05-13T00:58:21;1.97;;;1.57;;
63438;SDS011;49567;48.958;8.294;2023-05-13T01:00:50;2.20;;;1.70;;
63438;SDS011;49567;48.958;8.294;2023-05-13T01:03:28;2.25;;;1.70;;
63438;SDS011;49567;48.958;8.294;2023-05-13T01:06:11;2.03;;;1.92;;
63438;SDS011;49567;48.958;8.294;2023-05-13T01:11:39;1.83;;;1.73;;
63438;SDS011;49567;48.958;8.294;2023-05-13T01:14:08;2.27;;;1.80;;
63438;SDS011;49567;48.958;8.294;2023-05-13T01:16:52;1.80;;;1.70;;
63438;SDS011;49567;48.958;8.294;2023-05-13T01:19:25;2.17;;;2.07;;
63438;SDS011;49567;48.958;8.294;2023-05-13T01:21:57;2.90;;;1.90;;
63438;SDS011;49567;48.958;8.294;2023-05-13T01:24:23;1.97;;;1.80;;
63438;SDS011;49567;48.958;8.294;2023-05-13T01:26:48;2.03;;;2.00;;
63438;SDS011;49567;48.958;8.294;2023-05-13T01:29:13;3.70;;;1.70;;
63438;SDS011;49567;48.958;8.294;2023-05-13T01:31:39;2.03;;;1.93;;
63438;SDS011;49567;48.958;8.294;2023-05-13T01:34:06;2.25;;;2.15;;
63438;SDS011;49567;48.958;8.294;2023-05-13T01:36:34;2.22;;;2.13;;
63438;SDS011;49567;48.958;8.294;2023-05-13T01:39:00;2.80;;;2.60;;
63438;SDS011;49567;48.958;8.294;2023-05-13T01:41:27;1.95;;;1.95;;
63438;SDS011;49567;48.958;8.294;2023-05-13T01:43:52;2.00;;;1.90;;
63438;SDS011;49567;48.958;8.294;2023-05-13T01:46:17;1.97;;;1.87;;
63438;SDS011;49567;48.958;8.294;2023-05-13T01:48:43;2.40;;;2.20;;
63438;SDS011;49567;48.958;8.294;2023-05-13T01:51:08;4.35;;;2.20;;
63438;SDS011;49567;48.958;8.294;2023-05-13T01:53:33;2.30;;;2.10;;
63438;SDS011;49567;48.958;8.294;2023-05-13T01:55:59;1.73;;;1.63;;
63438;SDS011;49567;48.958;8.294;2023-05-13T01:58:24;2.50;;;2.30;;
63438;SDS011;49567;48.958;8.294;2023-05-13T02:00:49;2.17;;;2.07;;
63438;SDS011;49567;48.958;8.294;2023-05-13T02:03:14;2.20;;;2.10;;
63438;SDS011;49567;48.958;8.294;2023-05-13T02:05:40;2.10;;;1.90;;
63438;SDS011;49567;48.958;8.294;2023-05-13T02:08:06;2.37;;;2.17;;
63438;SDS011;49567;48.958;8.294;2023-05-13T02:10:31;2.33;;;1.87;;
63438;SDS011;49567;48.958;8.294;2023-05-13T02:12:57;1.85;;;1.75;;
63438;SDS011;49567;48.958;8.294;2023-05-13T02:15:22;4.93;;;1.83;;
63438;SDS011;49567;48.958;8.294;2023-05-13T02:17:47;1.80;;;1.70;;
63438;SDS011;49567;48.958;8.294;2023-05-13T02:20:13;1.98;;;1.88;;
63438;SDS011;49567;48.958;8.294;2023-05-13T02:22:38;2.20;;;2.03;;
63438;SDS011;49567;48.958;8.294;2023-05-13T02:25:03;2.13;;;2.00;;
63438;SDS011;49567;48.958;8.294;2023-05-13T02:27:29;2.13;;;1.93;;
63438;SDS011;49567;48.958;8.294;2023-05-13T02:29:54;2.30;;;2.10;;
63438;SDS011;49567;48.958;8.294;2023-05-13T02:32:20;1.90;;;1.80;;
63438;SDS011;49567;48.958;8.294;2023-05-13T02:34:45;1.90;;;1.80;;
63438;SDS011;49567;48.958;8.294;2023-05-13T02:37:10;2.70;;;2.20;;
63438;SDS011;49567;48.958;8.294;2023-05-13T02:39:35;1.87;;;1.77;;
63438;SDS011;49567;48.958;8.294;2023-05-13T02:42:01;4.30;;;2.60;;
63438;SDS011;49567;48.958;8.294;2023-05-13T02:44:27;2.05;;;1.95;;
63438;SDS011;49567;48.958;8.294;2023-05-13T02:46:52;2.42;;;2.28;;
63438;SDS011;49567;48.958;8.294;2023-05-13T02:49:17;2.27;;;2.17;;
63438;SDS011;49567;48.958;8.294;2023-05-13T02:51:43;1.80;;;1.70;;
63438;SDS011;49567;48.958;8.294;2023-05-13T02:54:08;2.28;;;2.05;;
63438;SDS011;49567;48.958;8.294;2023-05-13T02:56:33;2.40;;;1.90;;
63438;SDS011;49567;48.958;8.294;2023-05-13T02:58:58;2.20;;;2.00;;
63438;SDS011;49567;48.958;8.294;2023-05-13T03:01:24;2.00;;;1.90;;
63438;SDS011;49567;48.958;8.294;2023-05-13T03:03:50;2.25;;;2.15;;
63438;SDS011;49567;48.958;8.294;2023-05-13T03:06:16;2.43;;;2.23;;
63438;SDS011;49567;48.958;8.294;2023-05-13T03:08:41;2.67;;;2.47;;
63438;SDS011;49567;48.958;8.294;2023-05-13T03:11:06;2.53;;;2.30;;
63438;SDS011;49567;48.958;8.294;2023-05-13T03:13:31;2.90;;;1.90;;
63438;SDS011;49567;48.958;8.294;2023-05-13T03:15:57;2.30;;;2.20;;
63438;SDS011;49567;48.958;8.294;2023-05-13T03:18:22;2.35;;;2.17;;
63438;SDS011;49567;48.958;8.294;2023-05-13T03:20:48;4.37;;;2.10;;
63438;SDS011;49567;48.958;8.294;2023-05-13T03:23:13;2.37;;;2.17;;
63438;SDS011;49567;48.958;8.294;2023-05-13T03:25:38;2.17;;;1.98;;
63438;SDS011;49567;48.958;8.294;2023-05-13T03:28:03;2.00;;;1.90;;
63438;SDS011;49567;48.958;8.294;2023-05-13T03:30:29;2.73;;;2.53;;
63438;SDS011;49567;48.958;8.294;2023-05-13T03:32:54;2.00;;;1.90;;
63438;SDS011;49567;48.958;8.294;2023-05-13T03:35:20;2.80;;;2.13;;
63438;SDS011;49567;48.958;8.294;2023-05-13T03:37:46;2.73;;;2.17;;
63438;SDS011;49567;48.958;8.294;2023-05-13T03:40:11;5.90;;;2.13;;
63438;SDS011;49567;48.958;8.294;2023-05-13T03:42:36;2.50;;;2.30;;
63438;SDS011;49567;48.958;8.294;2023-05-13T03:45:02;2.20;;;2.10;;
63438;SDS011;49567;48.958;8.294;2023-05-13T03:47:27;4.33;;;2.23;;
63438;SDS011;49567;48.958;8.294;2023-05-13T03:49:52;2.45;;;2.25;;
63438;SDS011;49567;48.958;8.294;2023-05-13T03:52:18;4.23;;;2.70;;
63438;SDS011;49567;48.958;8.294;2023-05-13T03:54:43;2.97;;;2.77;;
63438;SDS011;49567;48.958;8.294;2023-05-13T03:57:08;2.50;;;2.30;;
63438;SDS011;49567;48.958;8.294;2023-05-13T03:59:33;2.57;;;2.40;;
63438;SDS011;49567;48.958;8.294;2023-05-13T04:01:59;2.60;;;2.40;;
63438;SDS011;49567;48.958;8.294;2023-05-13T04:04:24;2.38;;;2.17;;
63438;SDS011;49567;48.958;8.294;2023-05-13T04:06:49;2.80;;;2.60;;
63438;SDS011;49567;48.958;8.294;2023-05-13T04:09:15;2.70;;;2.60;;
63438;SDS011;49567;48.958;8.294;2023-05-13T04:11:40;3.65;;;2.67;;
63438;SDS011;49567;48.958;8.294;2023-05-13T04:14:05;2.33;;;2.23;;
63438;SDS011;49567;48.958;8.294;2023-05-13T04:16:30;4.70;;;2.20;;
63438;SDS011;49567;48.958;8.294;2023-05-13T04:18:56;2.35;;;2.25;;
63438;SDS011;49567;48.958;8.294;2023-05-13T04:21:21;2.77;;;2.60;;
63438;SDS011;49567;48.958;8.294;2023-05-13T04:23:46;2.43;;;2.23;;
63438;SDS011;49567;48.958;8.294;2023-05-13T04:26:11;2.50;;;2.40;;
63438;SDS011;49567;48.958;8.294;2023-05-13T04:28:37;2.53;;;2.37;;
63438;SDS011;49567;48.958;8.294;2023-05-13T04:31:02;2.00;;;1.90;;
63438;SDS011;49567;48.958;8.294;2023-05-13T04:33:27;2.95;;;2.53;;
63438;SDS011;49567;48.958;8.294;2023-05-13T04:35:53;2.50;;;2.23;;
63438;SDS011;49567;48.958;8.294;2023-05-13T04:38:18;3.37;;;2.50;;
63438;SDS011;49567;48.958;8.294;2023-05-13T04:40:43;3.00;;;2.70;;
63438;SDS011;49567;48.958;8.294;2023-05-13T04:43:09;3.13;;;2.83;;
63438;SDS011;49567;48.958;8.294;2023-05-13T04:45:35;3.00;;;2.70;;
63438;SDS011;49567;48.958;8.294;2023-05-13T04:48:01;5.10;;;2.50;;
63438;SDS011;49567;48.958;8.294;2023-05-13T04:50:26;3.33;;;2.42;;
63438;SDS011;49567;48.958;8.294;2023-05-13T04:52:51;2.80;;;2.70;;
63438;SDS011;49567;48.958;8.294;2023-05-13T04:55:18;3.00;;;2.80;;
63438;SDS011;49567;48.958;8.294;2023-05-13T04:57:44;3.08;;;2.80;;
63438;SDS011;49567;48.958;8.294;2023-05-13T05:00:10;2.60;;;2.50;;
63438;SDS011;49567;48.958;8.294;2023-05-13T05:02:35;2.97;;;2.67;;
63438;SDS011;49567;48.958;8.294;2023-05-13T05:05:01;2.80;;;2.60;;
63438;SDS011;49567;48.958;8.294;2023-05-13T05:07:26;2.83;;;2.60;;
63438;SDS011;49567;48.958;8.294;2023-05-13T05:09:55;2.75;;;2.65;;
63438;SDS011;49567;48.958;8.294;2023-05-13T05:12:20;3.00;;;2.80;;
63438;SDS011;49567;48.958;8.294;2023-05-13T05:14:45;2.53;;;2.23;;
63438;SDS011;49567;48.958;8.294;2023-05-13T05:17:11;2.60;;;2.40;;
63438;SDS011;49567;48.958;8.294;2023-05-13T05:19:36;3.50;;;2.47;;
63438;SDS011;49567;48.958;8.294;2023-05-13T05:22:01;2.50;;;2.30;;
63438;SDS011;49567;48.958;8.294;2023-05-13T05:24:27;4.47;;;2.97;;
63438;SDS011;49567;48.958;8.294;2023-05-13T05:26:52;3.40;;;2.70;;
63438;SDS011;49567;48.958;8.294;2023-05-13T05:29:17;2.60;;;2.40;;
63438;SDS011;49567;48.958;8.294;2023-05-13T05:31:43;3.17;;;2.67;;
63438;SDS011;49567;48.958;8.294;2023-05-13T05:34:09;4.47;;;2.70;;
63438;SDS011;49567;48.958;8.294;2023-05-13T05:36:34;2.78;;;2.40;;
63438;SDS011;49567;48.958;8.294;2023-05-13T05:38:59;2.63;;;2.43;;
63438;SDS011;49567;48.958;8.294;2023-05-13T05:41:25;2.67;;;2.50;;
63438;SDS011;49567;48.958;8.294;2023-05-13T05:43:50;5.72;;;2.20;;
63438;SDS011;49567;48.958;8.294;2023-05-13T05:46:15;2.57;;;2.37;;
63438;SDS011;49567;48.958;8.294;2023-05-13T05:48:41;2.33;;;2.23;;
63438;SDS011;49567;48.958;8.294;2023-05-13T05:51:06;4.07;;;2.40;;
63438;SDS011;49567;48.958;8.294;2023-05-13T05:53:32;2.13;;;2.03;;
63438;SDS011;49567;48.958;8.294;2023-05-13T05:56:01;2.88;;;2.65;;
63438;SDS011;49567;48.958;8.294;2023-05-13T05:58:27;2.45;;;2.25;;
63438;SDS011;49567;48.958;8.294;2023-05-13T06:00:52;2.50;;;2.30;;
63438;SDS011;49567;48.958;8.294;2023-05-13T06:03:18;3.00;;;2.47;;
63438;SDS011;49567;48.958;8.294;2023-05-13T06:05:44;2.50;;;2.40;;
63438;SDS011;49567;48.958;8.294;2023-05-13T06:08:09;3.30;;;2.25;;
63438;SDS011;49567;48.958;8.294;2023-05-13T06:10:34;2.97;;;2.07;;
63438;SDS011;49567;48.958;8.294;2023-05-13T06:13:00;3.07;;;2.23;;
63438;SDS011;49567;48.958;8.294;2023-05-13T06:15:25;2.00;;;1.90;;
63438;SDS011;49567;48.958;8.294;2023-05-13T06:17:50;3.50;;;2.33;;
63438;SDS011;49567;48.958;8.294;2023-05-13T06:20:15;2.33;;;2.13;;
63438;SDS011;49567;48.958;8.294;2023-05-13T06:22:41;3.65;;;2.05;;
63438;SDS011;49567;48.958;8.294;2023-05-13T06:25:06;1.70;;;1.60;;
63438;SDS011;49567;48.958;8.294;2023-05-13T06:27:32;1.92;;;1.80;;
63438;SDS011;49567;48.958;8.294;2023-05-13T06:29:58;2.17;;;2.07;;
63438;SDS011;49567;48.958;8.294;2023-05-13T06:32:23;2.40;;;2.20;;
63438;SDS011;49567;48.958;8.294;2023-05-13T06:34:49;2.30;;;1.80;;
63438;SDS011;49567;48.958;8.294;2023-05-13T06:37:16;3.00;;;1.90;;
63438;SDS011;49567;48.958;8.294;2023-05-13T06:39:41;1.77;;;1.67;;
63438;SDS011;49567;48.958;8.294;2023-05-13T06:42:06;2.07;;;1.97;;
63438;SDS011;49567;48.958;8.294;2023-05-13T06:44:32;2.23;;;2.13;;
63438;SDS011;49567;48.958;8.294;2023-05-13T06:46:57;3.07;;;2.10;;
63438;SDS011;49567;48.958;8.294;2023-05-13T06:49:22;2.20;;;2.00;;
63438;SDS011;49567;48.958;8.294;2023-05-13T06:51:50;3.20;;;2.40;;
63438;SDS011;49567;48.958;8.294;2023-05-13T06:54:15;2.93;;;2.17;;
63438;SDS011;49567;48.958;8.294;2023-05-13T06:56:41;4.67;;;2.37;;
63438;SDS011;49567;48.958;8.294;2023-05-13T06:59:06;3.55;;;2.17;;
63438;SDS011;49567;48.958;8.294;2023-05-13T07:01:31;2.70;;;2.20;;
63438;SDS011;49567;48.958;8.294;2023-05-13T07:03:57;2.00;;;1.90;;
63438;SDS011;49567;48.958;8.294;2023-05-13T07:06:22;4.00;;;2.23;;
63438;SDS011;49567;48.958;8.294;2023-05-13T07:08:47;2.07;;;1.97;;
63438;SDS011;49567;48.958;8.294;2023-05-13T07:11:13;2.30;;;2.10;;
63438;SDS011;49567;48.958;8.294;2023-05-13T07:13:38;3.43;;;2.10;;
63438;SDS011;49567;48.958;8.294;2023-05-13T07:16:03;2.30;;;2.10;;
63438;SDS011;49567;48.958;8.294;2023-05-13T07:18:29;2.17;;;2.08;;
63438;SDS011;49567;48.958;8.294;2023-05-13T07:20:54;5.30;;;2.63;;
63438;SDS011;49567;48.958;8.294;2023-05-13T07:23:22;3.10;;;2.08;;
63438;SDS011;49567;48.958;8.294;2023-05-13T07:25:48;2.33;;;1.98;;
63438;SDS011;49567;48.958;8.294;2023-05-13T07:28:17;2.30;;;2.10;;
63438;SDS011;49567;48.958;8.294;2023-05-13T07:30:43;4.90;;;2.03;;
63438;SDS011;49567;48.958;8.294;2023-05-13T07:33:09;2.17;;;2.03;;
63438;SDS011;49567;48.958;8.294;2023-05-13T07:35:34;2.83;;;1.90;;
63438;SDS011;49567;48.958;8.294;2023-05-13T07:38:01;2.80;;;1.95;;
63438;SDS011;49567;48.958;8.294;2023-05-13T07:40:26;2.13;;;1.93;;
63438;SDS011;49567;48.958;8.294;2023-05-13T07:42:52;3.05;;;2.00;;
63438;SDS011;49567;48.958;8.294;2023-05-13T07:45:17;2.17;;;2.03;;
63438;SDS011;49567;48.958;8.294;2023-05-13T07:47:43;2.10;;;2.00;;
63438;SDS011;49567;48.958;8.294;2023-05-13T07:50:08;3.23;;;2.00;;
63438;SDS011;49567;48.958;8.294;2023-05-13T07:52:33;2.50;;;2.10;;
63438;SDS011;49567;48.958;8.294;2023-05-13T07:55:00;3.55;;;2.40;;
63438;SDS011;49567;48.958;8.294;2023-05-13T07:57:25;1.83;;;1.83;;
63438;SDS011;49567;48.958;8.294;2023-05-13T07:59:50;4.00;;;2.03;;
63438;SDS011;49567;48.958;8.294;2023-05-13T08:02:17;2.00;;;1.80;;
63438;SDS011;49567;48.958;8.294;2023-05-13T08:04:42;2.58;;;1.90;;
63438;SDS011;49567;48.958;8.294;2023-05-13T08:07:08;3.03;;;2.03;;
63438;SDS011;49567;48.958;8.294;2023-05-13T08:09:34;2.40;;;1.80;;
63438;SDS011;49567;48.958;8.294;2023-05-13T08:11:59;2.37;;;2.17;;
63438;SDS011;49567;48.958;8.294;2023-05-13T08:14:24;2.47;;;2.28;;
63438;SDS011;49567;48.958;8.294;2023-05-13T08:16:49;2.43;;;2.23;;
63438;SDS011;49567;48.958;8.294;2023-05-13T08:19:15;3.70;;;2.10;;
63438;SDS011;49567;48.958;8.294;2023-05-13T08:21:43;2.30;;;2.20;;
63438;SDS011;49567;48.958;8.294;2023-05-13T08:24:09;2.13;;;2.03;;
63438;SDS011;49567;48.958;8.294;2023-05-13T08:26:34;1.87;;;1.77;;
63438;SDS011;49567;48.958;8.294;2023-05-13T08:28:59;3.20;;;2.17;;
63438;SDS011;49567;48.958;8.294;2023-05-13T08:31:24;2.17;;;2.03;;
63438;SDS011;49567;48.958;8.294;2023-05-13T08:33:50;2.10;;;2.00;;
63438;SDS011;49567;48.958;8.294;2023-05-13T08:36:17;3.15;;;1.98;;
63438;SDS011;49567;48.958;8.294;2023-05-13T08:38:42;3.55;;;2.33;;
63438;SDS011;49567;48.958;8.294;2023-05-13T08:41:13;2.90;;;2.30;;
63438;SDS011;49567;48.958;8.294;2023-05-13T08:43:41;2.30;;;2.20;;
63438;SDS011;49567;48.958;8.294;2023-05-13T08:46:08;2.47;;;2.22;;
63438;SDS011;49567;48.958;8.294;2023-05-13T08:48:34;3.47;;;2.35;;
63438;SDS011;49567;48.958;8.294;2023-05-13T08:51:00;2.65;;;2.10;;
63438;SDS011;49567;48.958;8.294;2023-05-13T08:53:26;2.70;;;2.50;;
63438;SDS011;49567;48.958;8.294;2023-05-13T08:55:52;3.03;;;2.30;;
63438;SDS011;49567;48.958;8.294;2023-05-13T08:58:18;3.17;;;2.40;;
63438;SDS011;49567;48.958;8.294;2023-05-13T09:00:53;3.30;;;2.42;;
63438;SDS011;49567;48.958;8.294;2023-05-13T09:03:18;2.42;;;2.28;;
63438;SDS011;49567;48.958;8.294;2023-05-13T09:05:45;2.20;;;2.10;;
63438;SDS011;49567;48.958;8.294;2023-05-13T09:08:11;2.25;;;2.00;;
63438;SDS011;49567;48.958;8.294;2023-05-13T09:10:37;4.13;;;2.00;;
63438;SDS011;49567;48.958;8.294;2023-05-13T09:13:02;2.20;;;2.00;;
63438;SDS011;49567;48.958;8.294;2023-05-13T09:15:28;2.40;;;2.20;;
63438;SDS011;49567;48.958;8.294;2023-05-13T09:17:58;1.95;;;1.85;;
63438;SDS011;49567;48.958;8.294;2023-05-13T09:20:30;1.92;;;1.77;;
63438;SDS011;49567;48.958;8.294;2023-05-13T09:23:02;3.03;;;1.85;;
63438;SDS011;49567;48.958;8.294;2023-05-13T09:25:32;2.80;;;2.10;;
63438;SDS011;49567;48.958;8.294;2023-05-13T09:27:58;1.80;;;1.70;;
63438;SDS011;49567;48.958;8.294;2023-05-13T09:30:25;2.50;;;2.23;;
63438;SDS011;49567;48.958;8.294;2023-05-13T09:33:06;2.08;;;1.92;;
63438;SDS011;49567;48.958;8.294;2023-05-13T09:35:35;2.30;;;2.15;;
63438;SDS011;49567;48.958;8.294;2023-05-13T09:38:15;1.92;;;1.83;;
63438;SDS011;49567;48.958;8.294;2023-05-13T09:40:48;2.17;;;1.97;;
63438;SDS011;49567;48.958;8.294;2023-05-13T09:43:20;1.90;;;1.73;;
63438;SDS011;49567;48.958;8.294;2023-05-13T09:45:47;2.08;;;1.60;;
63438;SDS011;49567;48.958;8.294;2023-05-13T09:48:17;2.73;;;1.50;;
63438;SDS011;49567;48.958;8.294;2023-05-13T09:50:46;1.93;;;1.73;;
63438;SDS011;49567;48.958;8.294;2023-05-13T09:53:13;2.03;;;1.90;;
63438;SDS011;49567;48.958;8.294;2023-05-13T09:55:43;1.53;;;1.53;;
63438;SDS011;49567;48.958;8.294;2023-05-13T09:58:12;1.87;;;1.77;;
63438;SDS011;49567;48.958;8.294;2023-05-13T10:00:41;1.60;;;1.50;;
63438;SDS011;49567;48.958;8.294;2023-05-13T10:03:07;1.98;;;1.75;;
63438;SDS011;49567;48.958;8.294;2023-05-13T10:05:33;2.88;;;1.77;;
63438;SDS011;49567;48.958;8.294;2023-05-13T10:07:59;1.95;;;1.75;;
63438;SDS011;49567;48.958;8.294;2023-05-13T10:10:27;4.32;;;2.22;;
63438;SDS011;49567;48.958;8.294;2023-05-13T10:12:54;2.78;;;1.50;;
63438;SDS011;49567;48.958;8.294;2023-05-13T10:15:23;1.50;;;1.50;;
63438;SDS011;49567;48.958;8.294;2023-05-13T10:17:51;2.50;;;1.70;;
63438;SDS011;49567;48.958;8.294;2023-05-13T10:20:17;1.75;;;1.48;;
63438;SDS011;49567;48.958;8.294;2023-05-13T10:22:42;1.50;;;1.50;;
63438;SDS011;49567;48.958;8.294;2023-05-13T10:25:08;1.40;;;1.30;;
63438;SDS011;49567;48.958;8.294;2023-05-13T10:27:34;1.33;;;1.33;;
63438;SDS011;49567;48.958;8.294;2023-05-13T10:29:59;3.33;;;1.20;;
63438;SDS011;49567;48.958;8.294;2023-05-13T10:32:26;1.73;;;1.40;;
63438;SDS011;49567;48.958;8.294;2023-05-13T10:35:00;2.70;;;1.20;;
63438;SDS011;49567;48.958;8.294;2023-05-13T10:43:28;1.25;;;1.25;;
63438;SDS011;49567;48.958;8.294;2023-05-13T10:45:55;1.33;;;1.33;;
63438;SDS011;49567;48.958;8.294;2023-05-13T10:48:21;2.90;;;1.52;;
63438;SDS011;49567;48.958;8.294;2023-05-13T10:50:51;1.60;;;1.10;;
63438;SDS011;49567;48.958;8.294;2023-05-13T10:53:24;1.55;;;1.45;;
63438;SDS011;49567;48.958;8.294;2023-05-13T10:55:53;0.98;;;0.98;;
63438;SDS011;49567;48.958;8.294;2023-05-13T10:58:20;1.30;;;1.20;;
63438;SDS011;49567;48.958;8.294;2023-05-13T11:00:48;1.00;;;1.00;;
63438;SDS011;49567;48.958;8.294;2023-05-13T11:03:25;1.23;;;1.23;;
63438;SDS011;49567;48.958;8.294;2023-05-13T11:06:37;1.05;;;0.98;;
63438;SDS011;49567;48.958;8.294;2023-05-13T11:08:48;1.50;;;1.40;;
63438;SDS011;49567;48.958;8.294;2023-05-13T11:16:19;1.10;;;1.10;;
63438;SDS011;49567;48.958;8.294;2023-05-13T11:18:44;1.10;;;0.90;;
63438;SDS011;49567;48.958;8.294;2023-05-13T11:21:10;1.23;;;1.23;;
63438;SDS011;49567;48.958;8.294;2023-05-13T11:23:49;1.30;;;1.20;;
63438;SDS011;49567;48.958;8.294;2023-05-13T11:26:21;1.20;;;1.20;;
63438;SDS011;49567;48.958;8.294;2023-05-13T11:28:57;1.03;;;1.03;;
63438;SDS011;49567;48.958;8.294;2023-05-13T11:31:43;1.13;;;1.13;;
63438;SDS011;49567;48.958;8.294;2023-05-13T11:34:17;1.17;;;0.90;;
63438;SDS011;49567;48.958;8.294;2023-05-13T11:39:11;1.20;;;1.20;;
63438;SDS011;49567;48.958;8.294;2023-05-13T11:41:50;1.30;;;1.30;;
63438;SDS011;49567;48.958;8.294;2023-05-13T11:44:20;1.88;;;1.35;;
63438;SDS011;49567;48.958;8.294;2023-05-13T11:46:50;3.35;;;0.98;;
63438;SDS011;49567;48.958;8.294;2023-05-13T11:52:01;2.17;;;1.07;;
63438;SDS011;49567;48.958;8.294;2023-05-13T11:54:43;1.40;;;1.20;;
63438;SDS011;49567;48.958;8.294;2023-05-13T11:57:22;1.00;;;1.00;;
63438;SDS011;49567;48.958;8.294;2023-05-13T12:02:25;1.17;;;1.17;;
63438;SDS011;49567;48.958;8.294;2023-05-13T12:04:52;1.10;;;1.10;;
63438;SDS011;49567;48.958;8.294;2023-05-13T12:07:19;3.00;;;1.13;;
63438;SDS011;49567;48.958;8.294;2023-05-13T12:09:48;2.30;;;1.42;;
63438;SDS011;49567;48.958;8.294;2023-05-13T12:12:14;1.35;;;1.05;;
63438;SDS011;49567;48.958;8.294;2023-05-13T12:14:41;1.30;;;1.20;;
63438;SDS011;49567;48.958;8.294;2023-05-13T12:17:07;1.25;;;1.08;;
63438;SDS011;49567;48.958;8.294;2023-05-13T12:19:33;1.10;;;1.10;;
63438;SDS011;49567;48.958;8.294;2023-05-13T12:21:58;1.30;;;1.20;;
63438;SDS011;49567;48.958;8.294;2023-05-13T12:24:23;1.47;;;1.40;;
63438;SDS011;49567;48.958;8.294;2023-05-13T12:26:49;1.30;;;1.20;;
63438;SDS011;49567;48.958;8.294;2023-05-13T12:29:14;1.57;;;1.47;;
63438;SDS011;49567;48.958;8.294;2023-05-13T12:31:50;1.60;;;1.30;;
63438;SDS011;49567;48.958;8.294;2023-05-13T12:34:30;4.50;;;4.00;;
63438;SDS011;49567;48.958;8.294;2023-05-13T12:36:56;27.33;;;6.60;;
63438;SDS011;49567;48.958;8.294;2023-05-13T12:39:34;65.22;;;27.92;;
63438;SDS011;49567;48.958;8.294;2023-05-13T12:41:59;116.77;;;46.47;;
63438;SDS011;49567;48.958;8.294;2023-05-13T12:44:24;726.67;;;179.67;;
63438;SDS011;49567;48.958;8.294;2023-05-13T12:49:16;601.15;;;169.77;;
63438;SDS011;49567;48.958;8.294;2023-05-13T12:51:41;340.87;;;138.17;;
63438;SDS011;49567;48.958;8.294;2023-05-13T12:54:09;704.43;;;209.70;;
63438;SDS011;49567;48.958;8.294;2023-05-13T12:56:35;203.52;;;72.35;;
63438;SDS011;49567;48.958;8.294;2023-05-13T12:59:01;1167.07;;;280.03;;
63438;SDS011;49567;48.958;8.294;2023-05-13T13:01:26;709.53;;;181.90;;
63438;SDS011;49567;48.958;8.294;2023-05-13T13:03:52;160.55;;;66.88;;
63438;SDS011;49567;48.958;8.294;2023-05-13T13:06:17;112.17;;;60.10;;
63438;SDS011;49567;48.958;8.294;2023-05-13T13:08:42;567.83;;;154.77;;
63438;SDS011;49567;48.958;8.294;2023-05-13T13:11:07;963.40;;;237.37;;
63438;SDS011;49567;48.958;8.294;2023-05-13T13:13:33;1881.77;;;383.90;;
63438;SDS011;49567;48.958;8.294;2023-05-13T13:15:58;1999.90;;;551.55;;
63438;SDS011;49567;48.958;8.294;2023-05-13T13:18:24;1999.90;;;751.67;;
63438;SDS011;49567;48.958;8.294;2023-05-13T13:20:50;685.15;;;223.20;;
63438;SDS011;49567;48.958;8.294;2023-05-13T13:23:16;544.13;;;196.38;;
63438;SDS011;49567;48.958;8.294;2023-05-13T13:25:44;19.88;;;18.17;;
63438;SDS011;49567;48.958;8.294;2023-05-13T13:28:10;1194.55;;;291.05;;
63438;SDS011;49567;48.958;8.294;2023-05-13T13:30:35;1666.20;;;401.27;;
63438;SDS011;49567;48.958;8.294;2023-05-13T13:33:01;836.40;;;259.02;;
63438;SDS011;49567;48.958;8.294;2023-05-13T13:35:26;1999.90;;;544.77;;
63438;SDS011;49567;48.958;8.294;2023-05-13T13:37:52;1999.90;;;888.83;;
63438;SDS011;49567;48.958;8.294;2023-05-13T13:40:18;1999.90;;;568.50;;
63438;SDS011;49567;48.958;8.294;2023-05-13T13:42:44;1999.90;;;999.90;;
63438;SDS011;49567;48.958;8.294;2023-05-13T13:45:09;1999.90;;;999.90;;
63438;SDS011;49567;48.958;8.294;2023-05-13T13:47:35;1999.90;;;999.90;;
63438;SDS011;49567;48.958;8.294;2023-05-13T13:50:00;1999.90;;;999.90;;
63438;SDS011;49567;48.958;8.294;2023-05-13T13:52:25;1999.90;;;999.90;;
63438;SDS011;49567;48.958;8.294;2023-05-13T13:54:52;1999.90;;;999.90;;
63438;SDS011;49567;48.958;8.294;2023-05-13T13:57:18;1999.90;;;999.90;;
63438;SDS011;49567;48.958;8.294;2023-05-13T13:59:43;1999.90;;;999.90;;
63438;SDS011;49567;48.958;8.294;2023-05-13T14:02:08;1999.90;;;999.90;;
63438;SDS011;49567;48.958;8.294;2023-05-13T14:04:34;1999.90;;;999.90;;
63438;SDS011;49567;48.958;8.294;2023-05-13T14:06:59;1999.90;;;999.90;;
63438;SDS011;49567;48.958;8.294;2023-05-13T14:09:25;127.00;;;102.60;;
63438;SDS011;49567;48.958;8.294;2023-05-13T14:11:50;89.87;;;80.87;;
63438;SDS011;49567;48.958;8.294;2023-05-13T14:14:15;1.37;;;1.27;;
63438;SDS011;49567;48.958;8.294;2023-05-13T14:16:41;1.57;;;1.40;;
63438;SDS011;49567;48.958;8.294;2023-05-13T14:19:07;1.15;;;0.98;;
63438;SDS011;49567;48.958;8.294;2023-05-13T14:21:34;1.40;;;0.90;;
63438;SDS011;49567;48.958;8.294;2023-05-13T14:23:59;0.90;;;0.90;;
63438;SDS011;49567;48.958;8.294;2023-05-13T14:26:24;0.90;;;0.90;;
63438;SDS011;49567;48.958;8.294;2023-05-13T14:28:50;0.93;;;0.93;;
63438;SDS011;49567;48.958;8.294;2023-05-13T14:31:15;1.13;;;1.10;;
63438;SDS011;49567;48.958;8.294;2023-05-13T14:33:41;36.47;;;34.00;;
63438;SDS011;49567;48.958;8.294;2023-05-13T14:36:06;856.93;;;537.77;;
63438;SDS011;49567;48.958;8.294;2023-05-13T14:38:33;1999.90;;;995.95;;
63438;SDS011;49567;48.958;8.294;2023-05-13T14:40:58;1999.90;;;999.90;;
63438;SDS011;49567;48.958;8.294;2023-05-13T14:43:26;1999.90;;;984.20;;
63438;SDS011;49567;48.958;8.294;2023-05-13T14:45:51;1999.90;;;999.90;;
63438;SDS011;49567;48.958;8.294;2023-05-13T14:48:17;1999.90;;;883.90;;
63438;SDS011;49567;48.958;8.294;2023-05-13T14:50:43;1999.90;;;999.90;;
63438;SDS011;49567;48.958;8.294;2023-05-13T14:53:09;1999.90;;;982.72;;
63438;SDS011;49567;48.958;8.294;2023-05-13T14:55:34;1999.90;;;556.23;;
63438;SDS011;49567;48.958;8.294;2023-05-13T14:57:59;1999.90;;;999.90;;
63438;SDS011;49567;48.958;8.294;2023-05-13T15:00:25;1999.90;;;999.90;;